createdAt,value
2022-08-20T00:01:01.875Z,12.60
2022-08-20T00:03:35.480Z,14.50
2022-08-20T00:06:14.059Z,14.30
2022-08-20T00:08:40.907Z,15.10
2022-08-20T00:11:10.828Z,14.97
2022-08-20T00:13:41.945Z,15.33
2022-08-20T00:16:09.121Z,15.70
2022-08-20T00:18:37.066Z,16.07
2022-08-20T00:21:06.177Z,15.20
2022-08-20T00:23:32.679Z,16.03
2022-08-20T00:25:59.184Z,17.47
2022-08-20T00:28:25.773Z,16.60
2022-08-20T00:30:52.890Z,17.03
2022-08-20T00:33:22.157Z,15.33
2022-08-20T00:35:52.308Z,16.30
2022-08-20T00:38:19.503Z,13.63
2022-08-20T00:40:50.143Z,14.07
2022-08-20T00:43:30.828Z,11.70
2022-08-20T00:46:00.141Z,11.70
2022-08-20T00:48:32.029Z,10.73
2022-08-20T00:51:10.108Z,10.07
2022-08-20T00:53:37.580Z,11.00
2022-08-20T00:56:05.928Z,11.30
2022-08-20T00:58:33.298Z,10.90
2022-08-20T01:01:00.309Z,11.07
2022-08-20T01:03:27.324Z,12.23
2022-08-20T01:05:54.048Z,12.50
2022-08-20T01:08:25.260Z,6.90
2022-08-20T01:10:53.838Z,5.43
2022-08-20T01:13:22.539Z,4.10
2022-08-20T01:15:51.729Z,3.37
2022-08-20T01:18:22.967Z,3.27
2022-08-20T01:20:52.154Z,3.27
2022-08-20T01:23:46.488Z,3.57
2022-08-20T01:26:22.454Z,3.33
2022-08-20T01:28:59.196Z,5.50
2022-08-20T01:31:29.879Z,5.07
2022-08-20T01:33:57.857Z,3.90
2022-08-20T01:36:32.692Z,3.50
2022-08-20T01:38:59.977Z,4.40
2022-08-20T01:41:45.643Z,3.70
2022-08-20T01:44:16.926Z,4.47
2022-08-20T01:46:46.902Z,3.67
2022-08-20T01:49:26.883Z,4.23
2022-08-20T01:51:55.562Z,3.43
2022-08-20T01:54:22.460Z,4.00
2022-08-20T01:57:06.135Z,5.20
2022-08-20T01:59:32.858Z,6.60
2022-08-20T02:02:00.288Z,6.47
2022-08-20T02:04:27.062Z,7.17
2022-08-20T02:06:57.734Z,8.37
2022-08-20T02:09:37.705Z,12.20
2022-08-20T02:12:06.065Z,12.77
2022-08-20T02:14:33.078Z,13.60
2022-08-20T02:17:00.564Z,14.57
2022-08-20T02:19:33.303Z,15.63
2022-08-20T02:22:04.331Z,15.93
2022-08-20T02:24:30.795Z,15.03
2022-08-20T02:26:57.402Z,16.37
2022-08-20T02:29:23.996Z,15.63
2022-08-20T02:32:24.275Z,16.07
2022-08-20T02:34:37.442Z,15.17
2022-08-20T02:37:05.831Z,14.30
2022-08-20T02:39:32.552Z,15.40
2022-08-20T02:41:59.174Z,15.53
2022-08-20T02:44:25.732Z,14.40
2022-08-20T02:46:52.322Z,15.80
2022-08-20T02:49:19.037Z,16.03
2022-08-20T02:51:46.043Z,16.10
2022-08-20T02:54:13.508Z,16.47
2022-08-20T02:56:40.021Z,15.23
2022-08-20T02:59:06.768Z,15.37
2022-08-20T03:01:33.595Z,14.90
2022-08-20T03:04:00.579Z,14.57
2022-08-20T03:06:27.694Z,14.53
2022-08-20T03:08:54.703Z,14.73
2022-08-20T03:11:21.221Z,13.90
2022-08-20T03:13:48.168Z,13.97
2022-08-20T03:16:14.883Z,14.60
2022-08-20T03:18:45.071Z,14.20
2022-08-20T03:21:12.217Z,13.93
2022-08-20T03:23:42.061Z,15.00
2022-08-20T03:26:11.843Z,14.50
2022-08-20T03:28:38.356Z,15.10
2022-08-20T03:31:05.596Z,14.63
2022-08-20T03:33:32.492Z,15.07
2022-08-20T03:35:59.453Z,14.70
2022-08-20T03:38:32.437Z,15.27
2022-08-20T03:41:01.813Z,15.70
2022-08-20T03:43:28.942Z,15.93
2022-08-20T03:45:55.946Z,15.67
2022-08-20T03:48:22.467Z,16.53
2022-08-20T03:50:50.720Z,16.57
2022-08-20T03:53:17.880Z,16.17
2022-08-20T03:55:53.712Z,15.83
2022-08-20T03:58:20.571Z,16.13
2022-08-20T04:00:51.765Z,16.83
2022-08-20T04:03:19.102Z,14.40
2022-08-20T04:05:46.454Z,13.90
2022-08-20T04:08:19.218Z,15.50
2022-08-20T04:10:46.872Z,16.00
2022-08-20T04:13:14.488Z,17.33
2022-08-20T04:15:41.248Z,16.20
2022-08-20T04:18:09.494Z,15.50
2022-08-20T04:20:37.617Z,15.10
2022-08-20T04:23:05.082Z,15.90
2022-08-20T04:25:36.159Z,16.13
2022-08-20T04:28:05.441Z,16.60
2022-08-20T04:30:33.028Z,16.37
2022-08-20T04:32:59.745Z,16.47
2022-08-20T04:35:27.296Z,15.70
2022-08-20T04:38:02.111Z,16.43
2022-08-20T04:40:47.824Z,14.90
2022-08-20T04:43:14.985Z,15.10
2022-08-20T04:45:41.632Z,14.80
2022-08-20T04:48:12.928Z,13.63
2022-08-20T04:50:43.690Z,15.43
2022-08-20T04:53:12.064Z,15.30
2022-08-20T04:55:42.361Z,15.30
2022-08-20T04:58:21.513Z,15.53
2022-08-20T05:00:51.190Z,14.90
2022-08-20T05:03:19.004Z,14.10
2022-08-20T05:05:46.665Z,14.10
2022-08-20T05:08:16.703Z,13.53
2022-08-20T05:10:46.797Z,12.77
2022-08-20T05:13:13.317Z,13.80
2022-08-20T05:15:40.559Z,13.67
2022-08-20T05:18:08.750Z,12.97
2022-08-20T05:20:38.826Z,13.50
2022-08-20T05:23:05.902Z,13.17
2022-08-20T05:25:32.546Z,13.13
2022-08-20T05:28:22.947Z,14.73
2022-08-20T05:30:52.150Z,13.60
2022-08-20T05:33:21.078Z,13.00
2022-08-20T05:35:49.649Z,14.07
2022-08-20T05:38:18.817Z,14.60
2022-08-20T05:40:45.724Z,12.60
2022-08-20T05:43:12.324Z,13.90
2022-08-20T05:45:40.506Z,13.30
2022-08-20T05:48:11.446Z,14.20
2022-08-20T05:50:42.457Z,14.50
2022-08-20T05:53:09.462Z,14.97
2022-08-20T05:55:39.470Z,13.73
2022-08-20T05:58:09.282Z,13.63
2022-08-20T06:00:37.293Z,15.90
2022-08-20T06:03:22.943Z,17.40
2022-08-20T06:05:50.496Z,17.40
2022-08-20T06:08:17.237Z,16.63
2022-08-20T06:10:44.318Z,17.07
2022-08-20T06:13:14.143Z,16.27
2022-08-20T06:15:40.882Z,18.57
2022-08-20T06:18:16.602Z,17.77
2022-08-20T06:20:54.675Z,15.87
2022-08-20T06:23:21.300Z,15.70
2022-08-20T06:25:50.202Z,13.50
2022-08-20T06:28:18.150Z,13.80
2022-08-20T06:30:44.850Z,14.80
2022-08-20T06:33:11.890Z,12.97
2022-08-20T06:35:38.485Z,11.73
2022-08-20T06:38:05.946Z,11.10
2022-08-20T06:40:34.113Z,11.33
2022-08-20T06:43:00.979Z,10.97
2022-08-20T06:45:31.419Z,12.97
2022-08-20T06:47:59.956Z,11.90
2022-08-20T06:50:47.112Z,11.03
2022-08-20T06:53:17.470Z,9.90
2022-08-20T06:55:52.109Z,8.37
2022-08-20T06:58:36.718Z,7.77
2022-08-20T07:01:10.348Z,8.87
2022-08-20T07:03:39.731Z,9.87
2022-08-20T07:06:09.412Z,10.27
2022-08-20T07:08:35.993Z,8.80
2022-08-20T07:11:03.088Z,9.43
2022-08-20T07:13:29.750Z,9.67
2022-08-20T07:15:56.476Z,8.57
2022-08-20T07:18:28.798Z,10.00
2022-08-20T07:20:57.371Z,11.70
2022-08-20T07:23:28.463Z,10.63
2022-08-20T07:25:55.858Z,10.97
2022-08-20T07:28:24.302Z,7.77
2022-08-20T07:31:13.181Z,9.80
2022-08-20T07:33:42.681Z,12.53
2022-08-20T07:36:11.882Z,12.43
2022-08-20T07:38:38.442Z,13.27
2022-08-20T07:41:09.948Z,13.33
2022-08-20T07:43:36.561Z,9.57
2022-08-20T07:46:08.940Z,10.10
2022-08-20T07:48:41.445Z,14.33
2022-08-20T07:51:09.828Z,15.80
2022-08-20T07:53:38.985Z,15.57
2022-08-20T07:56:08.220Z,14.10
2022-08-20T07:58:38.554Z,13.43
2022-08-20T08:01:06.431Z,16.30
2022-08-20T08:03:40.505Z,17.23
2022-08-20T08:06:19.661Z,18.07
2022-08-20T08:09:07.421Z,18.27
2022-08-20T08:11:37.991Z,18.00
2022-08-20T08:14:07.216Z,16.10
2022-08-20T08:16:35.123Z,17.60
2022-08-20T08:19:02.453Z,14.97
2022-08-20T08:21:30.495Z,20.47
2022-08-20T08:23:56.978Z,14.93
2022-08-20T08:26:23.985Z,18.37
2022-08-20T08:28:51.314Z,15.77
2022-08-20T08:31:17.871Z,16.67
2022-08-20T08:33:44.544Z,15.40
2022-08-20T08:36:13.677Z,17.47
2022-08-20T08:38:43.038Z,20.63
2022-08-20T08:41:31.345Z,22.83
2022-08-20T08:44:10.916Z,18.13
2022-08-20T08:46:45.323Z,16.80
2022-08-20T08:49:14.877Z,16.83
2022-08-20T08:51:52.208Z,17.90
2022-08-20T08:54:22.332Z,17.07
2022-08-20T08:56:50.013Z,13.90
2022-08-20T08:59:17.935Z,15.90
2022-08-20T09:01:56.991Z,10.63
2022-08-20T09:04:37.248Z,13.70
2022-08-20T09:07:05.240Z,13.87
2022-08-20T09:09:35.774Z,13.10
2022-08-20T09:12:22.962Z,11.77
2022-08-20T09:14:50.998Z,8.83
2022-08-20T09:17:20.148Z,11.30
2022-08-20T09:19:46.769Z,11.90
2022-08-20T09:22:16.328Z,16.03
2022-08-20T09:24:43.712Z,9.97
2022-08-20T09:27:10.637Z,8.87
2022-08-20T09:29:37.840Z,13.33
2022-08-20T09:32:11.890Z,11.23
2022-08-20T09:34:52.592Z,12.50
2022-08-20T09:37:19.227Z,9.43
2022-08-20T09:39:45.729Z,12.30
2022-08-20T09:42:15.520Z,8.90
2022-08-20T09:44:42.037Z,10.07
2022-08-20T09:47:10.431Z,11.47
2022-08-20T09:49:40.481Z,12.63
2022-08-20T09:52:09.808Z,10.10
2022-08-20T09:54:37.949Z,12.93
2022-08-20T09:57:06.894Z,13.20
2022-08-20T09:59:33.890Z,13.43
2022-08-20T10:02:00.509Z,13.33
2022-08-20T10:04:27.236Z,13.37
2022-08-20T10:06:53.858Z,16.60
2022-08-20T10:09:20.385Z,18.33
2022-08-20T10:11:46.877Z,17.87
2022-08-20T10:14:13.701Z,26.70
2022-08-20T10:16:40.632Z,19.10
2022-08-20T10:19:08.534Z,23.67
2022-08-20T10:21:38.657Z,22.83
2022-08-20T10:24:05.703Z,22.70
2022-08-20T10:26:32.223Z,24.20
2022-08-20T10:28:58.684Z,23.30
2022-08-20T10:31:25.200Z,20.20
2022-08-20T10:33:51.810Z,27.93
2022-08-20T10:36:18.826Z,26.97
2022-08-20T10:38:45.504Z,25.00
2022-08-20T10:41:12.152Z,24.83
2022-08-20T10:43:38.713Z,25.50
2022-08-20T10:46:06.136Z,25.00
2022-08-20T10:48:32.883Z,27.13
2022-08-20T10:50:59.569Z,27.40
2022-08-20T10:53:26.113Z,26.93
2022-08-20T10:55:53.877Z,24.43
2022-08-20T10:58:20.566Z,27.20
2022-08-20T11:00:51.326Z,27.73
2022-08-20T11:03:18.438Z,25.23
2022-08-20T11:05:45.883Z,25.87
2022-08-20T11:08:12.715Z,25.47
2022-08-20T11:10:39.745Z,27.30
2022-08-20T11:13:08.169Z,27.13
2022-08-20T11:15:38.393Z,28.27
2022-08-20T11:18:05.508Z,27.83
2022-08-20T11:20:32.562Z,28.00
2022-08-20T11:22:59.531Z,28.93
2022-08-20T11:25:26.908Z,26.17
2022-08-20T11:27:54.849Z,23.43
2022-08-20T11:30:25.770Z,25.97
2022-08-20T11:32:52.528Z,27.73
2022-08-20T11:38:08.221Z,21.23
2022-08-20T11:40:34.887Z,20.77
2022-08-20T11:43:17.735Z,20.10
2022-08-20T11:45:46.897Z,19.67
2022-08-20T11:48:13.443Z,18.73
2022-08-20T11:50:40.406Z,18.33
2022-08-20T11:53:07.933Z,17.90
2022-08-20T11:55:34.886Z,17.70
2022-08-20T11:58:02.457Z,15.00
2022-08-20T12:00:32.984Z,15.90
2022-08-20T12:03:05.477Z,16.00
2022-08-20T12:05:35.226Z,15.77
2022-08-20T12:08:02.397Z,16.07
2022-08-20T12:10:29.868Z,16.17
2022-08-20T12:12:57.299Z,14.87
2022-08-20T12:15:25.294Z,12.13
2022-08-20T12:17:52.157Z,13.00
2022-08-20T12:20:18.810Z,14.23
2022-08-20T12:22:45.652Z,12.13
2022-08-20T12:25:13.390Z,10.00
2022-08-20T12:27:40.954Z,11.07
2022-08-20T12:30:10.567Z,8.73
2022-08-20T12:32:37.199Z,10.87
2022-08-20T12:35:04.876Z,12.70
2022-08-20T12:37:31.924Z,13.00
2022-08-20T12:40:00.483Z,11.90
2022-08-20T12:42:27.642Z,12.40
2022-08-20T12:44:54.474Z,9.10
2022-08-20T12:47:24.421Z,10.17
2022-08-20T12:50:00.927Z,12.23
2022-08-20T12:52:28.571Z,12.10
2022-08-20T12:54:55.598Z,11.73
2022-08-20T12:57:31.840Z,10.87
2022-08-20T13:00:03.764Z,9.73
2022-08-20T13:02:31.585Z,10.30
2022-08-20T13:05:02.521Z,10.30
2022-08-20T13:07:31.845Z,11.37
2022-08-20T13:09:59.337Z,11.83
2022-08-20T13:12:25.882Z,11.70
2022-08-20T13:14:52.723Z,12.10
2022-08-20T13:17:19.984Z,10.10
2022-08-20T13:19:58.503Z,11.27
2022-08-20T13:22:25.353Z,10.17
2022-08-20T13:24:53.417Z,10.30
2022-08-20T13:27:20.374Z,11.67
2022-08-20T13:29:56.366Z,10.10
2022-08-20T13:32:24.907Z,10.47
2022-08-20T13:34:51.476Z,10.53
2022-08-20T13:37:25.879Z,7.10
2022-08-20T13:39:53.565Z,5.80
2022-08-20T13:42:20.386Z,6.17
2022-08-20T13:44:47.536Z,6.67
2022-08-20T13:47:23.420Z,5.87
2022-08-20T13:50:21.450Z,7.07
2022-08-20T13:52:48.499Z,7.67
2022-08-20T13:55:18.681Z,6.67
2022-08-20T13:57:45.632Z,7.23
2022-08-20T14:00:16.328Z,7.60
2022-08-20T14:02:43.170Z,7.70
2022-08-20T14:05:10.825Z,7.30
2022-08-20T14:07:38.975Z,6.30
2022-08-20T14:10:13.925Z,5.67
2022-08-20T14:12:40.924Z,5.63
2022-08-20T14:15:09.118Z,5.13
2022-08-20T14:17:38.305Z,4.80
2022-08-20T14:20:08.864Z,6.27
2022-08-20T14:22:36.879Z,5.43
2022-08-20T14:25:05.302Z,4.33
2022-08-20T14:27:33.648Z,4.53
2022-08-20T14:30:00.917Z,4.87
2022-08-20T14:32:27.990Z,3.27
2022-08-20T14:34:56.611Z,3.77
2022-08-20T14:37:31.617Z,3.63
2022-08-20T14:40:00.142Z,4.17
2022-08-20T14:42:28.531Z,4.10
2022-08-20T14:44:59.489Z,3.97
2022-08-20T14:47:29.829Z,4.97
2022-08-20T14:50:02.157Z,4.47
2022-08-20T14:52:29.225Z,4.80
2022-08-20T14:54:56.911Z,5.63
2022-08-20T14:57:23.660Z,4.20
2022-08-20T14:59:52.745Z,4.00
2022-08-20T15:02:19.318Z,4.50
2022-08-20T15:04:48.819Z,3.47
2022-08-20T15:07:25.548Z,3.10
2022-08-20T15:09:52.444Z,3.37
2022-08-20T15:12:19.237Z,3.10
2022-08-20T15:14:48.184Z,2.60
2022-08-20T15:17:20.105Z,3.10
2022-08-20T15:19:46.824Z,2.60
2022-08-20T15:22:13.449Z,3.00
2022-08-20T15:24:40.119Z,2.90
2022-08-20T15:27:22.749Z,3.47
2022-08-20T15:29:51.103Z,3.73
2022-08-20T15:32:18.009Z,3.30
2022-08-20T15:34:44.797Z,3.43
2022-08-20T15:37:13.989Z,2.93
2022-08-20T15:39:41.791Z,3.53
2022-08-20T15:42:09.180Z,3.17
2022-08-20T15:44:35.914Z,3.20
2022-08-20T15:47:27.880Z,3.07
2022-08-20T15:50:00.677Z,2.50
2022-08-20T15:52:32.153Z,3.50
2022-08-20T15:55:00.709Z,2.80
2022-08-20T15:57:57.844Z,3.20
2022-08-20T16:00:28.046Z,3.20
2022-08-20T16:03:00.642Z,2.87
2022-08-20T16:05:44.302Z,3.00
2022-08-20T16:08:23.080Z,3.17
2022-08-20T16:11:26.149Z,3.50
2022-08-20T16:14:03.334Z,3.47
2022-08-20T16:16:33.924Z,3.00
2022-08-20T16:19:00.659Z,3.00
2022-08-20T16:21:34.171Z,3.23
2022-08-20T16:24:01.342Z,3.00
2022-08-20T16:26:40.123Z,3.27
2022-08-20T16:29:17.656Z,3.07
2022-08-20T16:31:45.722Z,3.13
2022-08-20T16:34:36.590Z,3.13
2022-08-20T16:37:30.089Z,2.60
2022-08-20T16:40:23.195Z,3.13
2022-08-20T16:42:51.438Z,2.37
2022-08-20T16:45:26.297Z,2.73
2022-08-20T16:47:55.648Z,2.43
2022-08-20T16:50:43.081Z,2.90
2022-08-20T16:53:20.160Z,3.00
2022-08-20T16:55:46.899Z,2.80
2022-08-20T16:58:13.592Z,3.30
2022-08-20T17:00:45.227Z,3.23
2022-08-20T17:03:21.150Z,3.43
2022-08-20T17:06:00.899Z,3.40
2022-08-20T17:08:35.322Z,3.13
2022-08-20T17:11:12.339Z,2.90
2022-08-20T17:13:41.942Z,3.40
2022-08-20T17:16:14.369Z,3.17
2022-08-20T17:18:52.092Z,2.77
2022-08-20T17:21:25.812Z,3.10
2022-08-20T17:23:56.813Z,2.90
2022-08-20T17:26:30.390Z,2.97
2022-08-20T17:29:02.722Z,2.67
2022-08-20T17:31:43.721Z,2.93
2022-08-20T17:34:19.421Z,3.27
2022-08-20T17:36:58.923Z,2.70
2022-08-20T17:39:28.132Z,2.77
2022-08-20T17:42:04.314Z,2.50
2022-08-20T17:44:34.031Z,2.60
2022-08-20T17:47:03.029Z,2.50
2022-08-20T17:49:40.843Z,3.43
2022-08-20T17:52:12.947Z,3.03
2022-08-20T17:54:42.604Z,3.73
2022-08-20T17:57:16.173Z,3.47
2022-08-20T18:00:01.287Z,3.20
2022-08-20T18:02:29.898Z,2.87
2022-08-20T18:04:56.696Z,3.30
2022-08-20T18:07:26.071Z,3.00
2022-08-20T18:10:03.256Z,3.03
2022-08-20T18:12:37.237Z,3.10
2022-08-20T18:15:24.328Z,3.17
2022-08-20T18:18:19.292Z,2.97
2022-08-20T18:21:33.533Z,2.83
2022-08-20T18:24:04.309Z,3.80
2022-08-20T18:26:44.961Z,3.77
2022-08-20T18:29:16.352Z,3.47
2022-08-20T18:31:48.602Z,4.13
2022-08-20T18:34:21.707Z,3.30
2022-08-20T18:37:01.516Z,2.87
2022-08-20T18:39:34.599Z,4.10
2022-08-20T18:42:03.381Z,3.67
2022-08-20T18:44:30.186Z,3.30
2022-08-20T18:47:00.482Z,3.87
2022-08-20T18:49:33.680Z,3.50
2022-08-20T18:52:12.525Z,3.20
2022-08-20T18:54:42.497Z,3.67
2022-08-20T18:57:40.776Z,3.13
2022-08-20T19:00:16.579Z,3.70
2022-08-20T19:02:52.286Z,3.87
2022-08-20T19:05:27.610Z,4.03
2022-08-20T19:07:56.035Z,3.87
2022-08-20T19:11:00.838Z,4.30
2022-08-20T19:13:51.929Z,3.30
2022-08-20T19:16:22.677Z,3.60
2022-08-20T19:18:52.917Z,4.43
2022-08-20T19:21:25.112Z,3.70
2022-08-20T19:23:54.775Z,4.07
2022-08-20T19:26:25.082Z,3.87
2022-08-20T19:28:59.646Z,4.20
2022-08-20T19:31:33.229Z,3.70
2022-08-20T19:34:19.516Z,3.50
2022-08-20T19:37:05.205Z,3.90
2022-08-20T19:39:47.686Z,4.27
2022-08-20T19:42:18.906Z,4.03
2022-08-20T19:45:18.105Z,3.50
2022-08-20T19:47:50.779Z,3.67
2022-08-20T19:50:51.686Z,3.30
2022-08-20T19:53:30.314Z,3.73
2022-08-20T19:56:11.311Z,4.27
2022-08-20T19:58:38.340Z,3.27
2022-08-20T20:01:10.921Z,3.47
2022-08-20T20:03:38.145Z,3.40
2022-08-20T20:06:17.278Z,3.80
2022-08-20T20:08:57.408Z,4.33
2022-08-20T20:11:48.899Z,4.20
2022-08-20T20:14:17.769Z,4.67
2022-08-20T20:16:45.995Z,4.67
2022-08-20T20:19:30.144Z,5.20
2022-08-20T20:22:19.293Z,5.03
2022-08-20T20:24:56.849Z,5.13
2022-08-20T20:27:25.558Z,4.57
2022-08-20T20:29:59.171Z,5.50
2022-08-20T20:32:26.284Z,6.33
2022-08-20T20:34:56.225Z,5.90
2022-08-20T20:37:50.257Z,5.33
2022-08-20T20:40:25.431Z,5.33
2022-08-20T20:43:10.695Z,4.93
2022-08-20T20:45:43.186Z,8.57
2022-08-20T20:48:20.803Z,7.30
2022-08-20T20:50:48.455Z,5.73
2022-08-20T20:53:25.693Z,5.47
2022-08-20T20:56:26.156Z,4.87
2022-08-20T20:58:55.568Z,4.63
2022-08-20T21:01:27.304Z,4.37
2022-08-20T21:04:09.879Z,4.30
2022-08-20T21:06:36.653Z,5.23
2022-08-20T21:09:03.266Z,4.13
2022-08-20T21:11:29.996Z,4.20
2022-08-20T21:13:56.573Z,4.13
2022-08-20T21:16:23.193Z,3.50
2022-08-20T21:18:49.750Z,3.83
2022-08-20T21:21:16.457Z,3.43
2022-08-20T21:23:43.036Z,3.47
2022-08-20T21:26:09.925Z,3.90
2022-08-20T21:28:36.551Z,3.33
2022-08-20T21:31:03.338Z,3.23
2022-08-20T21:33:29.890Z,3.37
2022-08-20T21:35:57.034Z,3.50
2022-08-20T21:38:24.036Z,3.40
2022-08-20T21:40:50.840Z,3.10
2022-08-20T21:43:18.835Z,4.93
2022-08-20T21:45:45.672Z,4.23
2022-08-20T21:48:16.756Z,5.73
2022-08-20T21:50:43.681Z,4.73
2022-08-20T21:53:12.529Z,6.07
2022-08-20T21:55:40.472Z,5.57
2022-08-20T21:58:07.414Z,5.03
2022-08-20T22:00:56.732Z,4.53
2022-08-20T22:03:26.837Z,5.30
2022-08-20T22:05:53.891Z,5.47
2022-08-20T22:08:21.893Z,4.40
2022-08-20T22:10:57.046Z,4.90
2022-08-20T22:13:24.541Z,5.03
2022-08-20T22:15:51.031Z,4.47
2022-08-20T22:18:17.800Z,4.00
2022-08-20T22:20:44.445Z,4.07
2022-08-20T22:23:11.873Z,4.90
2022-08-20T22:25:38.684Z,5.10
2022-08-20T22:28:05.260Z,4.67
2022-08-20T22:30:31.926Z,4.90
2022-08-20T22:33:05.290Z,4.70
2022-08-20T22:35:32.767Z,4.83
2022-08-20T22:37:59.702Z,5.17
2022-08-20T22:40:26.530Z,4.57
2022-08-20T22:42:53.351Z,4.90
2022-08-20T22:45:19.938Z,4.97
2022-08-20T22:47:46.730Z,4.77
2022-08-20T22:50:13.721Z,4.93
2022-08-20T22:52:42.089Z,4.67
2022-08-20T22:55:09.760Z,4.60
2022-08-20T22:57:37.004Z,5.20
2022-08-20T23:00:11.143Z,4.60
2022-08-20T23:02:39.030Z,4.20
2022-08-20T23:05:06.215Z,4.47
2022-08-20T23:07:33.985Z,5.20
2022-08-20T23:10:00.768Z,5.07
2022-08-20T23:12:27.295Z,4.73
2022-08-20T23:14:54.982Z,4.23
2022-08-20T23:17:21.497Z,5.00
2022-08-20T23:19:49.233Z,4.30
2022-08-20T23:22:16.020Z,4.10
2022-08-20T23:24:42.580Z,3.77
2022-08-20T23:27:11.933Z,4.23
2022-08-20T23:29:38.664Z,3.67
2022-08-20T23:32:05.517Z,4.43
2022-08-20T23:34:32.343Z,4.40
2022-08-20T23:37:00.339Z,4.30
2022-08-20T23:39:28.635Z,4.10
2022-08-20T23:41:55.807Z,4.23
2022-08-20T23:44:25.703Z,4.57
2022-08-20T23:46:59.137Z,3.60
2022-08-20T23:49:26.601Z,4.27
2022-08-20T23:51:53.279Z,4.17
2022-08-20T23:54:19.882Z,4.50
2022-08-20T23:56:46.488Z,4.33
2022-08-20T23:59:13.006Z,4.40
